Time;durP1;ratioP1;P1;durP2;ratioP2;P2;SDS_P1;SDS_P2;PMS_P1;PMS_P2;Temp;Humidity;BMP_temperature;BMP_pressure;BME280_temperature;BME280_humidity;BME280_pressure;Samples;Min_cycle;Max_cycle;Signal;HPM_P1;HPM_P2
2024/02/03 00:01:13;;;;;;;12.63;11.33;;;;;;;;;;5026443;28;20452;-57
2024/02/03 00:03:40;;;;;;;13.73;11.70;;;;;;;;;;5023520;28;20263;-57
2024/02/03 00:06:06;;;;;;;13.23;11.77;;;;;;;;;;5028041;28;20252;-57
2024/02/03 00:08:33;;;;;;;12.80;11.50;;;;;;;;;;5027605;28;20166;-58
2024/02/03 00:10:59;;;;;;;13.00;11.60;;;;;;;;;;5029673;28;20294;-59
2024/02/03 00:13:25;;;;;;;12.17;10.70;;;;;;;;;;5028359;28;20178;-58
2024/02/03 00:15:51;;;;;;;13.60;12.17;;;;;;;;;;5028328;28;20166;-57
2024/02/03 00:18:17;;;;;;;12.60;11.30;;;;;;;;;;5026613;28;20247;-59
2024/02/03 00:20:43;;;;;;;13.63;11.23;;;;;;;;;;5029030;28;20232;-58
2024/02/03 00:23:09;;;;;;;12.90;11.60;;;;;;;;;;5027207;28;20166;-58
2024/02/03 00:25:35;;;;;;;12.40;11.10;;;;;;;;;;5029960;28;20265;-50
2024/02/03 00:28:01;;;;;;;13.97;12.30;;;;;;;;;;5027817;28;20278;-51
2024/02/03 00:30:27;;;;;;;14.03;11.53;;;;;;;;;;5027189;28;20186;-52
2024/02/03 00:32:53;;;;;;;12.23;10.97;;;;;;;;;;5027689;28;20606;-51
2024/02/03 00:35:20;;;;;;;12.50;11.20;;;;;;;;;;5029474;28;20200;-51
2024/02/03 00:37:46;;;;;;;11.80;10.60;;;;;;;;;;5027804;28;20224;-52
2024/02/03 00:40:12;;;;;;;11.90;10.70;;;;;;;;;;5028134;28;20974;-52
2024/02/03 00:42:38;;;;;;;11.50;10.37;;;;;;;;;;5027394;28;20197;-52
2024/02/03 00:45:04;;;;;;;12.73;10.20;;;;;;;;;;5026316;28;20174;-52
2024/02/03 00:47:30;;;;;;;10.57;9.47;;;;;;;;;;5033321;28;20288;-51
2024/02/03 00:49:56;;;;;;;11.40;10.30;;;;;;;;;;5023115;28;20209;-52
2024/02/03 00:52:22;;;;;;;10.40;9.30;;;;;;;;;;5028907;28;20182;-52
2024/02/03 00:54:49;;;;;;;12.50;10.33;;;;;;;;;;5027987;28;20316;-52
2024/02/03 00:57:15;;;;;;;11.73;9.97;;;;;;;;;;5025934;28;20265;-51
2024/02/03 00:59:41;;;;;;;11.60;10.00;;;;;;;;;;5028354;28;20609;-54
2024/02/03 01:02:07;;;;;;;11.10;10.03;;;;;;;;;;5025246;28;20884;-52
2024/02/03 01:04:33;;;;;;;10.53;9.53;;;;;;;;;;5028901;28;20178;-52
2024/02/03 01:07:01;;;;;;;10.27;9.23;;;;;;;;;;5028285;28;20181;-52
2024/02/03 01:09:27;;;;;;;10.07;8.93;;;;;;;;;;5026563;28;20182;-52
2024/02/03 01:11:54;;;;;;;10.73;9.67;;;;;;;;;;5027890;28;20694;-53
2024/02/03 01:14:20;;;;;;;11.93;10.33;;;;;;;;;;5027990;28;20178;-51
2024/02/03 01:16:46;;;;;;;11.47;9.67;;;;;;;;;;5028376;28;20660;-52
2024/02/03 01:19:12;;;;;;;10.27;9.27;;;;;;;;;;5025371;28;20241;-53
2024/02/03 01:21:38;;;;;;;10.37;9.37;;;;;;;;;;5027557;28;20227;-53
2024/02/03 01:24:05;;;;;;;11.47;10.10;;;;;;;;;;5026600;28;20655;-51
2024/02/03 01:26:31;;;;;;;10.90;9.43;;;;;;;;;;5027101;28;20181;-51
2024/02/03 01:28:57;;;;;;;9.43;8.50;;;;;;;;;;5023590;28;20201;-51
2024/02/03 01:31:23;;;;;;;9.93;8.83;;;;;;;;;;5026067;28;20556;-51
2024/02/03 01:33:49;;;;;;;10.27;9.20;;;;;;;;;;5027458;28;20193;-52
2024/02/03 01:36:15;;;;;;;9.63;8.73;;;;;;;;;;5024000;28;20274;-52
2024/02/03 01:38:47;;;;;;;9.83;8.83;;;;;;;;;;5024939;28;20348;-52
2024/02/03 01:41:13;;;;;;;10.00;9.00;;;;;;;;;;5027359;28;20489;-51
2024/02/03 01:43:39;;;;;;;9.27;8.37;;;;;;;;;;5025978;28;20815;-52
2024/02/03 01:46:05;;;;;;;9.67;8.77;;;;;;;;;;5026388;28;20170;-52
2024/02/03 01:48:33;;;;;;;10.33;9.00;;;;;;;;;;5026025;28;20568;-52
2024/02/03 01:51:00;;;;;;;9.53;8.43;;;;;;;;;;5027775;28;20269;-53
2024/02/03 01:53:26;;;;;;;16.43;9.30;;;;;;;;;;5025566;28;20170;-53
2024/02/03 01:55:53;;;;;;;10.23;8.60;;;;;;;;;;5027499;28;20544;-51
2024/02/03 01:58:20;;;;;;;12.77;9.33;;;;;;;;;;5025752;28;20186;-53
2024/02/03 02:00:46;;;;;;;9.85;8.85;;;;;;;;;;5027602;28;20659;-52
2024/02/03 02:03:15;;;;;;;10.17;9.17;;;;;;;;;;5026764;28;20236;-51
2024/02/03 02:05:41;;;;;;;9.57;8.30;;;;;;;;;;5021956;28;20178;-52
2024/02/03 02:08:07;;;;;;;9.87;8.77;;;;;;;;;;5026370;28;20216;-52
2024/02/03 02:10:33;;;;;;;11.53;8.93;;;;;;;;;;5026274;28;20638;-51
2024/02/03 02:12:59;;;;;;;9.90;8.10;;;;;;;;;;5025331;28;20205;-51
2024/02/03 02:15:26;;;;;;;8.93;8.03;;;;;;;;;;5021071;28;20582;-52
2024/02/03 02:18:02;;;;;;;11.83;8.37;;;;;;;;;;5022904;28;20217;-52
2024/02/03 02:20:28;;;;;;;;;;;;;;;;;;5026720;28;20081;-52
2024/02/03 02:22:53;;;;;;;;;;;;;;;;;;5026112;28;19936;-51
2024/02/03 02:25:19;;;;;;;;;;;;;;;;;;5026534;28;19923;-53
2024/02/03 02:27:45;;;;;;;;;;;;;;;;;;5026555;28;20376;-54
2024/02/03 02:30:11;;;;;;;;;;;;;;;;;;5020059;28;19948;-52
2024/02/03 02:32:37;;;;;;;;;;;;;;;;;;5024804;28;20317;-52
2024/02/03 02:35:03;;;;;;;;;;;;;;;;;;5027061;28;19975;-52
2024/02/03 02:37:30;;;;;;;;;;;;;;;;;;5026359;28;20054;-53
2024/02/03 02:39:56;;;;;;;;;;;;;;;;;;5024382;28;19913;-52
2024/02/03 02:42:23;;;;;;;;;;;;;;;;;;5025555;28;20381;-58
2024/02/03 02:44:49;;;;;;;;;;;;;;;;;;5027524;28;20000;-58
2024/02/03 02:47:15;;;;;;;;;;;;;;;;;;5026551;28;20003;-52
2024/02/03 02:49:41;;;;;;;;;;;;;;;;;;5025690;28;20376;-53
2024/02/03 02:52:07;;;;;;;;;;;;;;;;;;5022704;28;20424;-53
2024/02/03 02:54:33;;;;;;;;;;;;;;;;;;5025139;28;19948;-51
2024/02/03 02:56:59;;;;;;;;;;;;;;;;;;5025760;28;19909;-52
2024/02/03 02:59:25;;;;;;;;;;;;;;;;;;5025079;28;19975;-53
2024/02/03 03:01:51;;;;;;;8.73;7.90;;;;;;;;;;5023667;28;20218;-54
2024/02/03 03:04:17;;;;;;;8.63;7.77;;;;;;;;;;5025116;28;20925;-53
2024/02/03 03:06:43;;;;;;;9.10;7.93;;;;;;;;;;5030094;28;20162;-52
2024/02/03 03:09:09;;;;;;;9.23;8.23;;;;;;;;;;5023019;28;20253;-52
2024/02/03 03:11:36;;;;;;;9.33;8.40;;;;;;;;;;5025653;28;20178;-52
2024/02/03 03:14:02;;;;;;;9.53;8.50;;;;;;;;;;5030146;28;20758;-52
2024/02/03 03:16:28;;;;;;;10.73;9.17;;;;;;;;;;5019949;28;20597;-51
2024/02/03 03:18:54;;;;;;;9.43;8.30;;;;;;;;;;5018048;28;20348;-51
2024/02/03 03:21:20;;;;;;;9.47;8.47;;;;;;;;;;5025052;28;20649;-53
2024/02/03 03:23:46;;;;;;;9.30;7.93;;;;;;;;;;5018902;28;20183;-51
2024/02/03 03:26:12;;;;;;;9.07;8.17;;;;;;;;;;5024130;28;20177;-51
2024/02/03 03:28:38;;;;;;;9.53;8.60;;;;;;;;;;5021327;28;20515;-51
2024/02/03 03:31:04;;;;;;;8.70;7.80;;;;;;;;;;5023880;28;20193;-53
2024/02/03 03:33:30;;;;;;;9.77;8.73;;;;;;;;;;5022099;28;20177;-52
2024/02/03 03:35:56;;;;;;;8.77;7.97;;;;;;;;;;5024074;28;20173;-52
2024/02/03 03:38:23;;;;;;;9.97;8.97;;;;;;;;;;5023262;28;20548;-51
2024/02/03 03:40:49;;;;;;;8.70;7.80;;;;;;;;;;5023776;28;20201;-51
2024/02/03 03:43:15;;;;;;;9.13;8.13;;;;;;;;;;5027363;28;20678;-52
2024/02/03 03:45:41;;;;;;;9.90;8.90;;;;;;;;;;5030375;28;20179;-51
2024/02/03 03:48:07;;;;;;;9.93;7.93;;;;;;;;;;5031448;28;20668;-51
2024/02/03 03:50:33;;;;;;;9.70;8.77;;;;;;;;;;5028983;28;20228;-51
2024/02/03 03:52:59;;;;;;;8.87;7.97;;;;;;;;;;5023796;28;20182;-53
2024/02/03 03:55:25;;;;;;;9.17;8.27;;;;;;;;;;5025805;28;20221;-52
2024/02/03 03:57:51;;;;;;;9.53;8.57;;;;;;;;;;5023762;28;20186;-53
2024/02/03 04:00:17;;;;;;;9.10;7.90;;;;;;;;;;5025391;28;20212;-54
2024/02/03 04:02:43;;;;;;;;;;;;;;;;;;5024116;28;20073;-51
2024/02/03 04:05:09;;;;;;;;;;;;;;;;;;5032162;28;19967;-51
2024/02/03 04:07:35;;;;;;;;;;;;;;;;;;5029798;28;19960;-51
2024/02/03 04:10:01;;;;;;;;;;;;;;;;;;5028415;28;19967;-56
2024/02/03 04:12:27;;;;;;;;;;;;;;;;;;5028919;28;20022;-56
2024/02/03 04:14:53;;;;;;;;;;;;;;;;;;5028763;28;19975;-57
2024/02/03 04:17:19;;;;;;;;;;;;;;;;;;5026233;28;20354;-56
2024/02/03 04:19:45;;;;;;;;;;;;;;;;;;5027959;28;20391;-55
2024/02/03 04:22:12;;;;;;;;;;;;;;;;;;5029738;28;20396;-56
2024/02/03 04:24:38;;;;;;;;;;;;;;;;;;5028536;28;19909;-55
2024/02/03 04:27:04;;;;;;;;;;;;;;;;;;5029302;28;20300;-55
2024/02/03 04:29:30;;;;;;;;;;;;;;;;;;5026021;28;19920;-55
2024/02/03 04:31:56;;;;;;;;;;;;;;;;;;5024820;28;20376;-56
2024/02/03 04:34:22;;;;;;;;;;;;;;;;;;5024346;28;19968;-56
2024/02/03 04:36:48;;;;;;;;;;;;;;;;;;5027259;28;19956;-57
2024/02/03 04:39:14;;;;;;;;;;;;;;;;;;5026940;28;19960;-56
2024/02/03 04:41:40;;;;;;;;;;;;;;;;;;5027665;28;19940;-56
2024/02/03 04:44:05;;;;;;;;;;;;;;;;;;5026814;28;20080;-56
2024/02/03 04:46:31;;;;;;;;;;;;;;;;;;5028112;28;19968;-55
2024/02/03 04:48:57;;;;;;;;;;;;;;;;;;5030675;28;19955;-56
2024/02/03 04:51:23;;;;;;;;;;;;;;;;;;5029383;28;19965;-57
2024/02/03 04:53:49;;;;;;;;;;;;;;;;;;5027860;28;20012;-56
2024/02/03 04:56:15;;;;;;;;;;;;;;;;;;5029828;28;19909;-56
2024/02/03 04:58:41;;;;;;;;;;;;;;;;;;5028010;28;20070;-56
2024/02/03 05:01:07;;;;;;;;;;;;;;;;;;5028332;28;20423;-56
2024/02/03 05:03:35;;;;;;;;;;;;;;;;;;5028453;28;19951;-56
2024/02/03 05:06:01;;;;;;;;;;;;;;;;;;5028138;28;19909;-57
2024/02/03 05:08:27;;;;;;;;;;;;;;;;;;5027297;28;20009;-53
2024/02/03 05:10:53;;;;;;;;;;;;;;;;;;5028737;28;20423;-53
2024/02/03 05:13:19;;;;;;;;;;;;;;;;;;5029509;28;20331;-53
2024/02/03 05:15:45;;;;;;;;;;;;;;;;;;5025986;28;19940;-54
2024/02/03 05:18:11;;;;;;;;;;;;;;;;;;5026612;28;19952;-54
2024/02/03 05:20:37;;;;;;;;;;;;;;;;;;5024288;28;19960;-54
2024/02/03 05:23:03;;;;;;;;;;;;;;;;;;5027659;28;20063;-53
2024/02/03 05:25:29;;;;;;;;;;;;;;;;;;5030054;28;19947;-54
2024/02/03 05:27:55;;;;;;;;;;;;;;;;;;5027540;28;19956;-54
2024/02/03 05:30:21;;;;;;;;;;;;;;;;;;5023642;28;20317;-54
2024/02/03 05:32:47;;;;;;;;;;;;;;;;;;5028398;28;20364;-55
2024/02/03 05:35:13;;;;;;;;;;;;;;;;;;5028001;28;19963;-53
2024/02/03 05:37:38;;;;;;;;;;;;;;;;;;5028203;28;19948;-54
2024/02/03 05:40:04;;;;;;;;;;;;;;;;;;5027599;28;19920;-54
2024/02/03 05:42:30;;;;;;;;;;;;;;;;;;5027550;28;19944;-53
2024/02/03 05:44:56;;;;;;;;;;;;;;;;;;5030156;28;19963;-53
2024/02/03 05:47:22;;;;;;;;;;;;;;;;;;5028221;28;20004;-53
2024/02/03 05:49:48;;;;;;;;;;;;;;;;;;5027432;28;20428;-53
2024/02/03 05:52:14;;;;;;;;;;;;;;;;;;5023948;28;20349;-53
2024/02/03 05:54:40;;;;;;;;;;;;;;;;;;5025379;28;19963;-54
2024/02/03 05:57:06;;;;;;;;;;;;;;;;;;5024330;28;19924;-54
2024/02/03 05:59:32;;;;;;;;;;;;;;;;;;5027025;28;19967;-53
2024/02/03 06:01:58;;;;;;;;;;;;;;;;;;5027178;28;20381;-54
2024/02/03 06:04:24;;;;;;;;;;;;;;;;;;5026746;28;19944;-53
2024/02/03 06:06:50;;;;;;;;;;;;;;;;;;5026395;28;19967;-54
2024/02/03 06:09:16;;;;;;;;;;;;;;;;;;5020255;28;20055;-53
2024/02/03 06:11:42;;;;;;;;;;;;;;;;;;5027985;28;19913;-53
2024/02/03 06:14:08;;;;;;;;;;;;;;;;;;5028454;28;19917;-54
2024/02/03 06:16:34;;;;;;;;;;;;;;;;;;5032632;28;19947;-52
2024/02/03 06:19:00;;;;;;;;;;;;;;;;;;5026867;28;20336;-51
2024/02/03 06:21:27;;;;;;;;;;;;;;;;;;5025253;28;20026;-51
2024/02/03 06:23:53;;;;;;;;;;;;;;;;;;5025505;28;20174;-51
2024/02/03 06:26:19;;;;;;;;;;;;;;;;;;5027689;28;20075;-51
2024/02/03 06:28:45;;;;;;;;;;;;;;;;;;5023304;28;19968;-50
2024/02/03 06:31:10;;;;;;;;;;;;;;;;;;5025634;28;19952;-51
2024/02/03 06:33:36;;;;;;;;;;;;;;;;;;5027020;28;19952;-50
2024/02/03 06:36:02;;;;;;;;;;;;;;;;;;5027096;28;20405;-52
2024/02/03 06:38:28;;;;;;;;;;;;;;;;;;5022310;28;20345;-52
2024/02/03 06:40:54;;;;;;;;;;;;;;;;;;5024703;28;19910;-51
2024/02/03 06:43:20;;;;;;;;;;;;;;;;;;5026830;28;20012;-50
2024/02/03 06:45:46;;;;;;;;;;;;;;;;;;5027611;28;20002;-52
2024/02/03 06:48:12;;;;;;;;;;;;;;;;;;5026706;28;19948;-51
2024/02/03 06:50:38;;;;;;;;;;;;;;;;;;5026521;28;19985;-51
2024/02/03 06:53:05;;;;;;;;;;;;;;;;;;5024646;28;20432;-51
2024/02/03 06:55:31;;;;;;;;;;;;;;;;;;5027239;28;19963;-50
2024/02/03 06:57:57;;;;;;;;;;;;;;;;;;5027703;28;19956;-51
2024/02/03 07:00:23;;;;;;;;;;;;;;;;;;5026496;28;19917;-50
2024/02/03 07:02:49;;;;;;;;;;;;;;;;;;5026377;28;19919;-51
2024/02/03 07:05:14;;;;;;;;;;;;;;;;;;5023230;28;19991;-52
2024/02/03 07:07:40;;;;;;;;;;;;;;;;;;5025984;28;20317;-51
2024/02/03 07:10:06;;;;;;;;;;;;;;;;;;5023934;28;20385;-51
2024/02/03 07:12:32;;;;;;;;;;;;;;;;;;5024236;28;19959;-50
2024/02/03 07:14:58;;;;;;;;;;;;;;;;;;5025216;28;19956;-51
2024/02/03 07:17:24;;;;;;;;;;;;;;;;;;5024586;28;19996;-51
2024/02/03 07:19:50;;;;;;;;;;;;;;;;;;5030008;28;20304;-52
2024/02/03 07:22:16;;;;;;;;;;;;;;;;;;5029122;28;19948;-50
2024/02/03 07:24:42;;;;;;;;;;;;;;;;;;5021823;28;19915;-50
2024/02/03 07:27:09;;;;;;;;;;;;;;;;;;5028765;28;19967;-56
2024/02/03 07:29:35;;;;;;;;;;;;;;;;;;5024593;28;19983;-55
2024/02/03 07:32:01;;;;;;;;;;;;;;;;;;5028104;28;19948;-56
2024/02/03 07:34:27;;;;;;;;;;;;;;;;;;5025249;28;20004;-56
2024/02/03 07:36:53;;;;;;;;;;;;;;;;;;5025364;28;20525;-56
2024/02/03 07:39:19;;;;;;;;;;;;;;;;;;5024166;28;19959;-54
2024/02/03 07:41:45;;;;;;;;;;;;;;;;;;5021764;28;19949;-56
2024/02/03 07:44:10;;;;;;;;;;;;;;;;;;5027138;28;19941;-55
2024/02/03 07:46:36;;;;;;;;;;;;;;;;;;5027691;28;20355;-56
2024/02/03 07:49:04;;;;;;;;;;;;;;;;;;5022035;28;19967;-56
2024/02/03 07:51:29;;;;;;;;;;;;;;;;;;5019656;28;20827;-54
2024/02/03 07:53:56;;;;;;;;;;;;;;;;;;5023776;28;19913;-56
2024/02/03 07:56:22;;;;;;;;;;;;;;;;;;5023696;28;20016;-56
2024/02/03 07:58:48;;;;;;;;;;;;;;;;;;5025559;28;20341;-55
2024/02/03 08:01:14;;;;;;;;;;;;;;;;;;5020783;28;19953;-55
2024/02/03 08:03:39;;;;;;;;;;;;;;;;;;5020877;28;20328;-55
2024/02/03 08:06:06;;;;;;;;;;;;;;;;;;5017828;28;19960;-55
2024/02/03 08:08:32;;;;;;;;;;;;;;;;;;5022659;28;20250;-56
2024/02/03 08:10:58;;;;;;;;;;;;;;;;;;5021665;28;19923;-57
2024/02/03 08:13:24;;;;;;;;;;;;;;;;;;5023278;28;19924;-55
2024/02/03 08:15:50;;;;;;;;;;;;;;;;;;5021182;28;20004;-55
2024/02/03 08:18:16;;;;;;;;;;;;;;;;;;5023796;28;19964;-56
2024/02/03 08:20:42;;;;;;;;;;;;;;;;;;5021272;28;19968;-58
2024/02/03 08:23:08;;;;;;;;;;;;;;;;;;5026959;28;19931;-56
2024/02/03 08:25:34;;;;;;;;;;;;;;;;;;5029590;28;20225;-53
2024/02/03 08:28:00;;;;;;;;;;;;;;;;;;5024071;28;19921;-53
2024/02/03 08:30:26;;;;;;;;;;;;;;;;;;5027816;28;20443;-53
2024/02/03 08:32:52;;;;;;;;;;;;;;;;;;5026195;28;20345;-53
2024/02/03 08:35:18;;;;;;;;;;;;;;;;;;5027822;28;20329;-53
2024/02/03 08:37:44;;;;;;;;;;;;;;;;;;5024942;28;19968;-54
2024/02/03 08:40:10;;;;;;;;;;;;;;;;;;5025325;28;19960;-54
2024/02/03 08:42:36;;;;;;;;;;;;;;;;;;5024025;28;19948;-53
2024/02/03 08:45:02;;;;;;;;;;;;;;;;;;5025760;28;19987;-53
2024/02/03 08:47:28;;;;;;;;;;;;;;;;;;5024031;28;20027;-54
2024/02/03 08:49:56;;;;;;;;;;;;;;;;;;5028239;28;20047;-54
2024/02/03 08:52:22;;;;;;;;;;;;;;;;;;5026349;28;19908;-54
2024/02/03 08:54:48;;;;;;;;;;;;;;;;;;5026594;28;20027;-54
2024/02/03 08:57:14;;;;;;;;;;;;;;;;;;5029165;28;20340;-53
2024/02/03 08:59:40;;;;;;;;;;;;;;;;;;5027260;28;19967;-54
2024/02/03 09:02:06;;;;;;;;;;;;;;;;;;5025235;28;20660;-53
2024/02/03 09:04:32;;;;;;;;;;;;;;;;;;5030411;28;19977;-53
2024/02/03 09:06:58;;;;;;;;;;;;;;;;;;5030778;28;19956;-54
2024/02/03 09:09:24;;;;;;;;;;;;;;;;;;5018969;28;20325;-54
2024/02/03 09:11:50;;;;;;;;;;;;;;;;;;5018705;28;19974;-54
2024/02/03 09:14:16;;;;;;;;;;;;;;;;;;5024216;28;19940;-54
2024/02/03 09:16:42;;;;;;;;;;;;;;;;;;5027671;28;19941;-54
2024/02/03 09:19:08;;;;;;;;;;;;;;;;;;5027263;28;19960;-53
2024/02/03 09:21:34;;;;;;;;;;;;;;;;;;5025800;28;19964;-53
2024/02/03 09:24:00;;;;;;;;;;;;;;;;;;5024233;28;20427;-53
2024/02/03 09:26:26;;;;;;;;;;;;;;;;;;5030222;28;19924;-53
2024/02/03 09:28:52;;;;;;;;;;;;;;;;;;5027152;28;19967;-54
2024/02/03 09:31:18;;;;;;;;;;;;;;;;;;5027495;28;19913;-54
2024/02/03 09:33:44;;;;;;;;;;;;;;;;;;5024192;28;19979;-54
2024/02/03 09:36:10;;;;;;;;;;;;;;;;;;5022428;28;19959;-54
2024/02/03 09:38:36;;;;;;;;;;;;;;;;;;5022617;28;19996;-54
2024/02/03 09:41:02;;;;;;;;;;;;;;;;;;5007296;28;20046;-54
2024/02/03 09:43:28;;;;;;;;;;;;;;;;;;5023407;28;19916;-54
2024/02/03 09:45:54;;;;;;;;;;;;;;;;;;5022402;28;19909;-54
2024/02/03 09:48:20;;;;;;;;;;;;;;;;;;5024026;28;20360;-53
2024/02/03 09:50:46;;;;;;;;;;;;;;;;;;5026058;28;20024;-53
2024/02/03 09:53:12;;;;;;;;;;;;;;;;;;5008363;28;20448;-54
2024/02/03 09:55:38;;;;;;;;;;;;;;;;;;4996598;28;20007;-54
2024/02/03 09:58:04;;;;;;;;;;;;;;;;;;4995976;28;20224;-54
2024/02/03 10:00:30;;;;;;;;;;;;;;;;;;4994179;28;20027;-54
2024/02/03 10:02:55;;;;;;;;;;;;;;;;;;4995478;28;20402;-54
2024/02/03 10:05:22;;;;;;;;;;;;;;;;;;4996153;28;20435;-54
2024/02/03 10:07:49;;;;;;;;;;;;;;;;;;4997352;28;19952;-54
2024/02/03 10:10:15;;;;;;;;;;;;;;;;;;4996807;28;20423;-54
2024/02/03 10:12:41;;;;;;;;;;;;;;;;;;4991365;28;20087;-54
2024/02/03 10:15:07;;;;;;;;;;;;;;;;;;4995589;28;20071;-54
2024/02/03 10:17:33;;;;;;;;;;;;;;;;;;4995814;28;20427;-54
2024/02/03 10:19:59;;;;;;;;;;;;;;;;;;4996326;28;20111;-54
2024/02/03 10:22:26;;;;;;;;;;;;;;;;;;4998687;28;19920;-54
2024/02/03 10:24:51;;;;;;;;;;;;;;;;;;5019705;28;20007;-54
2024/02/03 10:27:17;;;;;;;;;;;;;;;;;;5025509;28;20031;-54
2024/02/03 10:29:43;;;;;;;;;;;;;;;;;;5021940;28;19948;-54
2024/02/03 10:32:09;;;;;;;;;;;;;;;;;;5025416;28;20298;-54
2024/02/03 10:34:35;;;;;;;;;;;;;;;;;;5024713;28;20003;-54
2024/02/03 10:37:01;;;;;;;;;;;;;;;;;;5024600;28;19917;-54
2024/02/03 10:39:27;;;;;;;;;;;;;;;;;;5020807;28;20027;-54
2024/02/03 10:41:53;;;;;;;;;;;;;;;;;;5025366;28;20384;-54
2024/02/03 10:44:22;;;;;;;;;;;;;;;;;;5025410;28;19909;-54
2024/02/03 10:46:47;;;;;;;;;;;;;;;;;;5031319;28;19917;-54
2024/02/03 10:49:13;;;;;;;;;;;;;;;;;;5024884;28;20363;-54
2024/02/03 10:51:39;;;;;;;;;;;;;;;;;;5024750;28;19944;-54
2024/02/03 10:54:05;;;;;;;;;;;;;;;;;;5027218;28;19968;-54
2024/02/03 10:56:32;;;;;;;;;;;;;;;;;;5026656;28;20206;-54
2024/02/03 10:58:58;;;;;;;;;;;;;;;;;;5022323;28;19967;-54
2024/02/03 11:01:24;;;;;;;;;;;;;;;;;;5018069;28;19955;-54
2024/02/03 11:03:50;;;;;;;;;;;;;;;;;;5004474;28;19917;-54
2024/02/03 11:06:16;;;;;;;;;;;;;;;;;;5004502;28;19948;-54
2024/02/03 11:08:42;;;;;;;;;;;;;;;;;;5006527;28;19955;-54
2024/02/03 11:11:08;;;;;;;;;;;;;;;;;;5003760;28;20573;-54
2024/02/03 11:13:34;;;;;;;;;;;;;;;;;;5005084;28;19964;-54
2024/02/03 11:16:00;;;;;;;;;;;;;;;;;;5004875;28;20006;-54
2024/02/03 11:18:27;;;;;;;;;;;;;;;;;;5004619;28;19963;-54
2024/02/03 11:20:53;;;;;;;;;;;;;;;;;;5004474;28;20024;-54
2024/02/03 11:23:18;;;;;;;;;;;;;;;;;;5004691;28;20019;-54
2024/02/03 11:25:44;;;;;;;;;;;;;;;;;;5004197;28;19972;-54
2024/02/03 11:28:11;;;;;;;;;;;;;;;;;;5004857;28;20018;-54
2024/02/03 11:30:37;;;;;;;;;;;;;;;;;;5003316;28;19956;-54
2024/02/03 11:33:05;;;;;;;;;;;;;;;;;;4997640;28;19909;-54
2024/02/03 11:35:30;;;;;;;;;;;;;;;;;;4996559;28;20016;-54
2024/02/03 11:37:56;;;;;;;;;;;;;;;;;;5004865;28;20015;-54
2024/02/03 11:40:22;;;;;;;;;;;;;;;;;;5005870;28;20031;-54
2024/02/03 11:42:48;;;;;;;;;;;;;;;;;;5007674;28;20352;-54
2024/02/03 11:45:16;;;;;;;;;;;;;;;;;;5005818;28;20131;-54
2024/02/03 11:47:42;;;;;;;;;;;;;;;;;;5006319;28;20089;-54
2024/02/03 11:50:08;;;;;;;;;;;;;;;;;;5007037;28;19956;-54
2024/02/03 11:52:34;;;;;;;;;;;;;;;;;;5006349;28;19960;-54
2024/02/03 11:55:00;;;;;;;;;;;;;;;;;;5005801;28;19949;-54
2024/02/03 11:57:25;;;;;;;;;;;;;;;;;;5005313;28;19923;-54
2024/02/03 11:59:51;;;;;;;;;;;;;;;;;;5005459;28;19968;-54
2024/02/03 12:02:18;;;;;;;;;;;;;;;;;;5006029;28;19944;-54
2024/02/03 12:04:44;;;;;;;;;;;;;;;;;;5002729;28;20090;-54
2024/02/03 12:07:09;;;;;;;;;;;;;;;;;;5006315;28;20056;-54
2024/02/03 12:09:35;;;;;;;;;;;;;;;;;;5003126;28;19917;-56
2024/02/03 12:12:01;;;;;;;;;;;;;;;;;;5005668;28;20004;-55
2024/02/03 12:14:28;;;;;;;;;;;;;;;;;;5004794;28;19941;-56
2024/02/03 12:16:54;;;;;;;;;;;;;;;;;;5005140;28;19932;-56
2024/02/03 12:19:20;;;;;;;;;;;;;;;;;;5003351;28;20239;-54
2024/02/03 12:21:46;;;;;;;;;;;;;;;;;;4998787;28;20023;-55
2024/02/03 12:24:12;;;;;;;;;;;;;;;;;;5000640;28;20443;-54
2024/02/03 12:26:39;;;;;;;;;;;;;;;;;;5003614;28;20344;-55
2024/02/03 12:29:05;;;;;;;;;;;;;;;;;;5003581;28;20030;-56
2024/02/03 12:31:31;;;;;;;;;;;;;;;;;;5001261;28;20007;-53
2024/02/03 12:33:57;;;;;;;;;;;;;;;;;;5002236;28;19951;-56
2024/02/03 12:36:24;;;;;;;;;;;;;;;;;;5003105;28;20043;-56
2024/02/03 12:38:50;;;;;;;;;;;;;;;;;;5004061;28;19924;-56
2024/02/03 12:41:16;;;;;;;;;;;;;;;;;;5005880;28;19924;-57
2024/02/03 12:43:43;;;;;;;;;;;;;;;;;;5005523;28;20380;-56
2024/02/03 12:46:09;;;;;;;;;;;;;;;;;;5004694;28;19959;-57
2024/02/03 12:48:36;;;;;;;;;;;;;;;;;;5005946;28;19956;-54
2024/02/03 12:51:03;;;;;;;;;;;;;;;;;;4999908;28;20075;-56
2024/02/03 12:53:29;;;;;;;;;;;;;;;;;;5003006;28;20046;-54
2024/02/03 12:55:55;;;;;;;;;;;;;;;;;;5004024;28;19944;-56
2024/02/03 12:58:24;;;;;;;;;;;;;;;;;;5003748;28;19952;-55
2024/02/03 13:00:50;;;;;;;;;;;;;;;;;;5004458;28;20023;-57
2024/02/03 13:03:16;;;;;;;;;;;;;;;;;;5000913;28;20396;-55
2024/02/03 13:05:42;;;;;;;;;;;;;;;;;;5003915;28;20040;-56
2024/02/03 13:08:08;;;;;;;;;;;;;;;;;;5008151;28;20020;-52
2024/02/03 13:10:34;;;;;;;;;;;;;;;;;;5013562;28;20206;-52
2024/02/03 13:13:00;;;;;;;;;;;;;;;;;;5012197;28;19956;-51
2024/02/03 13:15:26;;;;;;;;;;;;;;;;;;5025254;28;19952;-52
2024/02/03 13:17:51;;;;;;;;;;;;;;;;;;5019126;28;20345;-54
2024/02/03 13:20:17;;;;;;;;;;;;;;;;;;5025071;28;19948;-54
2024/02/03 13:22:43;;;;;;;;;;;;;;;;;;5024767;28;20382;-54
2024/02/03 13:25:09;;;;;;;;;;;;;;;;;;5017603;28;19959;-54
2024/02/03 13:27:35;;;;;;;;;;;;;;;;;;5026027;28;19909;-54
2024/02/03 13:30:03;;;;;;;;;;;;;;;;;;5022956;28;20487;-54
2024/02/03 13:32:29;;;;;;;;;;;;;;;;;;5023547;28;19917;-54
2024/02/03 13:34:55;;;;;;;;;;;;;;;;;;5018226;28;20280;-54
2024/02/03 13:37:21;;;;;;;;;;;;;;;;;;5019689;28;19913;-54
2024/02/03 13:39:47;;;;;;;;;;;;;;;;;;5023316;28;19916;-54
2024/02/03 13:42:13;;;;;;;;;;;;;;;;;;5025904;28;19957;-54
2024/02/03 13:44:39;;;;;;;;;;;;;;;;;;5026843;28;19990;-54
2024/02/03 13:47:05;;;;;;;;;;;;;;;;;;5034169;28;19955;-54
2024/02/03 13:49:31;;;;;;;;;;;;;;;;;;5026675;28;19971;-54
2024/02/03 13:51:57;;;;;;;;;;;;;;;;;;5023237;28;20380;-53
2024/02/03 13:54:23;;;;;;;;;;;;;;;;;;5025744;28;20333;-54
2024/02/03 13:56:49;;;;;;;;;;;;;;;;;;5021915;28;19952;-54
2024/02/03 13:59:15;;;;;;;;;;;;;;;;;;5009250;28;19952;-54
2024/02/03 14:01:41;;;;;;;;;;;;;;;;;;5023596;28;20509;-54
2024/02/03 14:04:07;;;;;;;;;;;;;;;;;;5026730;28;19955;-53
2024/02/03 14:06:33;;;;;;;;;;;;;;;;;;5024081;28;19948;-54
2024/02/03 14:08:59;;;;;;;;;;;;;;;;;;5025533;28;19966;-53
2024/02/03 14:11:25;;;;;;;;;;;;;;;;;;5031228;28;19956;-54
2024/02/03 14:13:51;;;;;;;;;;;;;;;;;;5025614;28;20044;-53
2024/02/03 14:16:17;;;;;;;;;;;;;;;;;;5020983;28;20000;-53
2024/02/03 14:18:43;;;;;;;;;;;;;;;;;;5026347;28;19960;-53
2024/02/03 14:21:09;;;;;;;;;;;;;;;;;;5022359;28;20461;-53
2024/02/03 14:23:35;;;;;;;;;;;;;;;;;;5024313;28;20372;-53
2024/02/03 14:26:01;;;;;;;;;;;;;;;;;;5024444;28;19959;-54
2024/02/03 14:28:27;;;;;;;;;;;;;;;;;;5023222;28;20416;-54
2024/02/03 14:30:53;;;;;;;;;;;;;;;;;;5025863;28;19913;-53
2024/02/03 14:33:21;;;;;;;;;;;;;;;;;;5019228;28;19944;-54
2024/02/03 14:35:46;;;;;;;;;;;;;;;;;;5025351;28;19916;-54
2024/02/03 14:38:13;;;;;;;;;;;;;;;;;;5026095;28;19956;-54
2024/02/03 14:40:38;;;;;;;;;;;;;;;;;;5024964;28;20003;-54
2024/02/03 14:43:04;;;;;;;;;;;;;;;;;;5027761;28;20357;-54
2024/02/03 14:45:30;;;;;;;;;;;;;;;;;;5028008;28;19956;-54
2024/02/03 14:47:56;;;;;;;;;;;;;;;;;;5023152;28;19960;-53
2024/02/03 14:50:25;;;;;;;;;;;;;;;;;;5024495;28;19971;-54
2024/02/03 14:52:51;;;;;;;;;;;;;;;;;;5021917;28;19917;-54
2024/02/03 14:55:17;;;;;;;;;;;;;;;;;;5025758;28;19944;-54
2024/02/03 14:57:43;;;;;;;;;;;;;;;;;;5022325;28;20407;-54
2024/02/03 15:00:09;;;;;;;;;;;;;;;;;;5025912;28;19948;-54
2024/02/03 15:02:34;;;;;;;;;;;;;;;;;;5028082;28;19960;-54
2024/02/03 15:05:01;;;;;;;;;;;;;;;;;;5026023;28;20349;-54
2024/02/03 15:07:27;;;;;;;;;;;;;;;;;;5019126;28;20613;-54
2024/02/03 15:09:53;;;;;;;;;;;;;;;;;;5019189;28;19959;-54
2024/02/03 15:12:28;;;;;;;;;;;;;;;;;;5025994;28;19917;-54
2024/02/03 15:14:54;;;;;;;;;;;;;;;;;;5022329;28;19920;-54
2024/02/03 15:17:20;;;;;;;;;;;;;;;;;;5022791;28;19968;-53
2024/02/03 15:19:46;;;;;;;;;;;;;;;;;;5020331;28;19972;-54
2024/02/03 15:22:12;;;;;;;;;;;;;;;;;;5027639;28;19948;-53
2024/02/03 15:24:37;;;;;;;;;;;;;;;;;;5015356;28;19999;-53
2024/02/03 15:27:03;;;;;;;;;;;;;;;;;;5024294;28;19992;-53
2024/02/03 15:29:30;;;;;;;;;;;;;;;;;;5027876;28;19959;-53
2024/02/03 15:31:55;;;;;;;;;;;;;;;;;;5023931;28;19920;-54
2024/02/03 15:34:21;;;;;;;;;;;;;;;;;;5019651;28;19956;-54
2024/02/03 15:36:48;;;;;;;;;;;;;;;;;;5025469;28;20314;-54
2024/02/03 15:39:14;;;;;;;;;;;;;;;;;;5028841;28;19917;-53
2024/02/03 15:41:40;;;;;;;;;;;;;;;;;;5028995;28;19967;-53
2024/02/03 15:44:06;;;;;;;;;;;;;;;;;;5027476;28;19916;-54
2024/02/03 15:46:32;;;;;;;;;;;;;;;;;;5023509;28;19927;-53
2024/02/03 15:48:58;;;;;;;;;;;;;;;;;;5027779;28;19932;-53
2024/02/03 15:51:24;;;;;;;;;;;;;;;;;;5025694;28;19960;-53
2024/02/03 15:53:50;;;;;;;;;;;;;;;;;;5029053;28;19971;-53
2024/02/03 15:56:16;;;;;;;18.73;11.87;;;;;;;;;;5026790;28;19972;-54
2024/02/03 15:58:42;;;;;;;;;;;;;;;;;;5025951;28;20331;-54
2024/02/03 16:01:10;;;;;;;;;;;;;;;;;;5028723;28;19963;-54
2024/02/03 16:03:36;;;;;;;;;;;;;;;;;;5024639;28;20783;-54
2024/02/03 16:06:02;;;;;;;;;;;;;;;;;;5024020;28;19928;-54